sensor_id;sensor_type;location;lat;lon;timestamp;P1;durP1;ratioP1;P2;durP2;ratioP2
73650;SDS011;61944;52.538;6.108;2024-03-02T00:01:06;6.07;;;3.63;;
73650;SDS011;61944;52.538;6.108;2024-03-02T00:03:32;5.93;;;3.75;;
73650;SDS011;61944;52.538;6.108;2024-03-02T00:05:58;5.00;;;2.97;;
73650;SDS011;61944;52.538;6.108;2024-03-02T00:08:24;9.05;;;4.28;;
73650;SDS011;61944;52.538;6.108;2024-03-02T00:11:00;4.97;;;2.75;;
73650;SDS011;61944;52.538;6.108;2024-03-02T00:13:27;5.57;;;2.53;;
73650;SDS011;61944;52.538;6.108;2024-03-02T00:15:55;2.95;;;2.25;;
73650;SDS011;61944;52.538;6.108;2024-03-02T00:18:25;4.85;;;2.92;;
73650;SDS011;61944;52.538;6.108;2024-03-02T00:21:01;4.97;;;2.08;;
73650;SDS011;61944;52.538;6.108;2024-03-02T00:23:29;3.25;;;2.05;;
73650;SDS011;61944;52.538;6.108;2024-03-02T00:25:58;6.00;;;2.28;;
73650;SDS011;61944;52.538;6.108;2024-03-02T00:28:34;4.55;;;2.15;;
73650;SDS011;61944;52.538;6.108;2024-03-02T00:33:31;3.15;;;2.28;;
73650;SDS011;61944;52.538;6.108;2024-03-02T00:36:04;3.35;;;2.30;;
73650;SDS011;61944;52.538;6.108;2024-03-02T00:38:30;2.97;;;2.17;;
73650;SDS011;61944;52.538;6.108;2024-03-02T00:41:00;4.13;;;2.30;;
73650;SDS011;61944;52.538;6.108;2024-03-02T00:43:47;2.25;;;1.90;;
73650;SDS011;61944;52.538;6.108;2024-03-02T00:46:21;5.70;;;2.33;;
73650;SDS011;61944;52.538;6.108;2024-03-02T00:48:53;5.03;;;2.38;;
73650;SDS011;61944;52.538;6.108;2024-03-02T00:51:19;3.53;;;2.15;;
73650;SDS011;61944;52.538;6.108;2024-03-02T00:53:45;3.05;;;2.05;;
73650;SDS011;61944;52.538;6.108;2024-03-02T00:56:11;2.08;;;1.77;;
73650;SDS011;61944;52.538;6.108;2024-03-02T00:58:37;2.88;;;2.63;;
73650;SDS011;61944;52.538;6.108;2024-03-02T01:01:03;3.22;;;1.58;;
73650;SDS011;61944;52.538;6.108;2024-03-02T01:03:28;2.92;;;2.13;;
73650;SDS011;61944;52.538;6.108;2024-03-02T01:05:53;1.95;;;1.60;;
73650;SDS011;61944;52.538;6.108;2024-03-02T01:08:19;2.17;;;1.50;;
73650;SDS011;61944;52.538;6.108;2024-03-02T01:10:44;3.00;;;1.85;;
73650;SDS011;61944;52.538;6.108;2024-03-02T01:13:09;2.58;;;1.67;;
73650;SDS011;61944;52.538;6.108;2024-03-02T01:15:35;4.07;;;1.98;;
73650;SDS011;61944;52.538;6.108;2024-03-02T01:18:00;2.10;;;1.80;;
73650;SDS011;61944;52.538;6.108;2024-03-02T01:20:25;2.83;;;1.60;;
73650;SDS011;61944;52.538;6.108;2024-03-02T01:22:51;2.30;;;1.58;;
73650;SDS011;61944;52.538;6.108;2024-03-02T01:25:17;2.08;;;1.40;;
73650;SDS011;61944;52.538;6.108;2024-03-02T01:27:42;4.53;;;1.80;;
73650;SDS011;61944;52.538;6.108;2024-03-02T01:30:08;3.13;;;1.85;;
73650;SDS011;61944;52.538;6.108;2024-03-02T01:32:33;5.25;;;1.65;;
73650;SDS011;61944;52.538;6.108;2024-03-02T01:34:59;3.85;;;1.50;;
73650;SDS011;61944;52.538;6.108;2024-03-02T01:37:24;4.05;;;1.83;;
73650;SDS011;61944;52.538;6.108;2024-03-02T01:39:49;2.28;;;1.83;;
73650;SDS011;61944;52.538;6.108;2024-03-02T01:42:15;2.47;;;1.08;;
73650;SDS011;61944;52.538;6.108;2024-03-02T01:44:40;3.45;;;1.40;;
73650;SDS011;61944;52.538;6.108;2024-03-02T01:47:06;3.55;;;1.67;;
73650;SDS011;61944;52.538;6.108;2024-03-02T01:49:31;3.53;;;1.60;;
73650;SDS011;61944;52.538;6.108;2024-03-02T01:51:59;2.28;;;1.33;;
73650;SDS011;61944;52.538;6.108;2024-03-02T01:54:24;1.67;;;1.33;;
73650;SDS011;61944;52.538;6.108;2024-03-02T01:56:50;1.70;;;1.35;;
73650;SDS011;61944;52.538;6.108;2024-03-02T01:59:16;2.08;;;1.20;;
73650;SDS011;61944;52.538;6.108;2024-03-02T02:01:42;2.72;;;1.50;;
73650;SDS011;61944;52.538;6.108;2024-03-02T02:04:07;5.57;;;1.30;;
73650;SDS011;61944;52.538;6.108;2024-03-02T02:06:32;2.08;;;1.27;;
73650;SDS011;61944;52.538;6.108;2024-03-02T02:08:58;1.85;;;1.17;;
73650;SDS011;61944;52.538;6.108;2024-03-02T02:11:24;4.80;;;1.50;;
73650;SDS011;61944;52.538;6.108;2024-03-02T02:13:49;1.83;;;1.42;;
73650;SDS011;61944;52.538;6.108;2024-03-02T02:16:15;1.80;;;1.30;;
73650;SDS011;61944;52.538;6.108;2024-03-02T02:18:40;4.60;;;1.60;;
73650;SDS011;61944;52.538;6.108;2024-03-02T02:21:05;6.95;;;2.05;;
73650;SDS011;61944;52.538;6.108;2024-03-02T02:23:31;4.07;;;2.00;;
73650;SDS011;61944;52.538;6.108;2024-03-02T02:25:56;4.00;;;2.13;;
73650;SDS011;61944;52.538;6.108;2024-03-02T02:28:21;1.75;;;1.65;;
73650;SDS011;61944;52.538;6.108;2024-03-02T02:30:47;1.90;;;1.70;;
73650;SDS011;61944;52.538;6.108;2024-03-02T02:33:12;2.20;;;1.40;;
73650;SDS011;61944;52.538;6.108;2024-03-02T02:35:37;2.47;;;1.90;;
73650;SDS011;61944;52.538;6.108;2024-03-02T02:38:03;3.10;;;1.55;;
73650;SDS011;61944;52.538;6.108;2024-03-02T02:40:29;5.22;;;1.92;;
73650;SDS011;61944;52.538;6.108;2024-03-02T02:42:56;2.85;;;1.85;;
73650;SDS011;61944;52.538;6.108;2024-03-02T02:45:21;2.63;;;1.50;;
73650;SDS011;61944;52.538;6.108;2024-03-02T02:47:47;2.00;;;1.65;;
73650;SDS011;61944;52.538;6.108;2024-03-02T02:50:12;1.88;;;1.70;;
73650;SDS011;61944;52.538;6.108;2024-03-02T02:52:38;3.95;;;2.33;;
73650;SDS011;61944;52.538;6.108;2024-03-02T02:55:06;6.97;;;1.63;;
73650;SDS011;61944;52.538;6.108;2024-03-02T02:57:33;2.25;;;1.50;;
73650;SDS011;61944;52.538;6.108;2024-03-02T03:00:07;2.38;;;1.50;;
73650;SDS011;61944;52.538;6.108;2024-03-02T03:02:45;2.47;;;1.73;;
73650;SDS011;61944;52.538;6.108;2024-03-02T03:05:13;4.05;;;1.58;;
73650;SDS011;61944;52.538;6.108;2024-03-02T03:07:39;2.40;;;1.70;;
73650;SDS011;61944;52.538;6.108;2024-03-02T03:10:06;2.00;;;1.60;;
73650;SDS011;61944;52.538;6.108;2024-03-02T03:12:33;1.73;;;1.63;;
73650;SDS011;61944;52.538;6.108;2024-03-02T03:14:59;3.92;;;1.58;;
73650;SDS011;61944;52.538;6.108;2024-03-02T03:17:25;2.10;;;1.40;;
73650;SDS011;61944;52.538;6.108;2024-03-02T03:19:50;2.00;;;1.50;;
73650;SDS011;61944;52.538;6.108;2024-03-02T03:22:16;2.92;;;1.55;;
73650;SDS011;61944;52.538;6.108;2024-03-02T03:24:41;2.47;;;1.30;;
73650;SDS011;61944;52.538;6.108;2024-03-02T03:27:07;1.73;;;1.40;;
73650;SDS011;61944;52.538;6.108;2024-03-02T03:29:32;2.08;;;1.30;;
73650;SDS011;61944;52.538;6.108;2024-03-02T03:31:57;1.27;;;1.15;;
73650;SDS011;61944;52.538;6.108;2024-03-02T03:34:23;4.22;;;1.48;;
73650;SDS011;61944;52.538;6.108;2024-03-02T03:36:48;1.60;;;1.20;;
73650;SDS011;61944;52.538;6.108;2024-03-02T03:39:13;2.40;;;1.38;;
73650;SDS011;61944;52.538;6.108;2024-03-02T03:41:40;1.60;;;1.00;;
73650;SDS011;61944;52.538;6.108;2024-03-02T03:44:05;2.88;;;1.05;;
73650;SDS011;61944;52.538;6.108;2024-03-02T03:46:31;2.28;;;0.93;;
73650;SDS011;61944;52.538;6.108;2024-03-02T03:48:56;2.78;;;1.27;;
73650;SDS011;61944;52.538;6.108;2024-03-02T03:51:21;0.93;;;0.73;;
73650;SDS011;61944;52.538;6.108;2024-03-02T03:53:48;1.25;;;0.80;;
73650;SDS011;61944;52.538;6.108;2024-03-02T03:56:13;2.30;;;0.88;;
73650;SDS011;61944;52.538;6.108;2024-03-02T03:58:39;1.42;;;0.80;;
73650;SDS011;61944;52.538;6.108;2024-03-02T04:01:04;1.58;;;0.80;;
73650;SDS011;61944;52.538;6.108;2024-03-02T04:03:29;0.85;;;0.60;;
73650;SDS011;61944;52.538;6.108;2024-03-02T04:05:55;2.17;;;1.00;;
73650;SDS011;61944;52.538;6.108;2024-03-02T04:08:20;1.10;;;0.70;;
73650;SDS011;61944;52.538;6.108;2024-03-02T04:10:46;1.95;;;0.57;;
73650;SDS011;61944;52.538;6.108;2024-03-02T04:13:11;1.10;;;1.00;;
73650;SDS011;61944;52.538;6.108;2024-03-02T04:15:37;1.05;;;0.70;;
73650;SDS011;61944;52.538;6.108;2024-03-02T04:18:02;0.70;;;0.70;;
73650;SDS011;61944;52.538;6.108;2024-03-02T04:20:28;3.50;;;1.10;;
73650;SDS011;61944;52.538;6.108;2024-03-02T04:22:54;2.03;;;0.88;;
73650;SDS011;61944;52.538;6.108;2024-03-02T04:25:20;1.17;;;0.80;;
73650;SDS011;61944;52.538;6.108;2024-03-02T04:27:45;0.73;;;0.65;;
73650;SDS011;61944;52.538;6.108;2024-03-02T04:30:10;1.52;;;0.60;;
73650;SDS011;61944;52.538;6.108;2024-03-02T04:32:36;1.13;;;0.70;;
73650;SDS011;61944;52.538;6.108;2024-03-02T04:35:02;3.13;;;1.13;;
73650;SDS011;61944;52.538;6.108;2024-03-02T04:37:27;0.80;;;0.60;;
73650;SDS011;61944;52.538;6.108;2024-03-02T04:39:52;0.82;;;0.60;;
73650;SDS011;61944;52.538;6.108;2024-03-02T04:42:18;0.68;;;0.55;;
73650;SDS011;61944;52.538;6.108;2024-03-02T04:44:43;1.20;;;0.65;;
73650;SDS011;61944;52.538;6.108;2024-03-02T04:47:08;2.13;;;0.90;;
73650;SDS011;61944;52.538;6.108;2024-03-02T04:49:34;0.90;;;0.60;;
73650;SDS011;61944;52.538;6.108;2024-03-02T04:51:59;1.00;;;0.80;;
73650;SDS011;61944;52.538;6.108;2024-03-02T04:54:24;1.23;;;0.80;;
73650;SDS011;61944;52.538;6.108;2024-03-02T04:56:50;0.80;;;0.80;;
73650;SDS011;61944;52.538;6.108;2024-03-02T04:59:16;1.52;;;0.60;;
73650;SDS011;61944;52.538;6.108;2024-03-02T05:01:42;2.10;;;0.70;;
73650;SDS011;61944;52.538;6.108;2024-03-02T05:04:08;0.50;;;0.50;;
73650;SDS011;61944;52.538;6.108;2024-03-02T05:06:36;1.27;;;0.57;;
73650;SDS011;61944;52.538;6.108;2024-03-02T05:09:05;1.95;;;0.90;;
73650;SDS011;61944;52.538;6.108;2024-03-02T05:11:31;0.68;;;0.60;;
73650;SDS011;61944;52.538;6.108;2024-03-02T05:14:03;1.63;;;0.60;;
73650;SDS011;61944;52.538;6.108;2024-03-02T05:16:29;0.90;;;0.70;;
73650;SDS011;61944;52.538;6.108;2024-03-02T05:18:54;3.50;;;0.60;;
73650;SDS011;61944;52.538;6.108;2024-03-02T05:21:19;3.05;;;0.50;;
73650;SDS011;61944;52.538;6.108;2024-03-02T05:23:45;0.55;;;0.40;;
73650;SDS011;61944;52.538;6.108;2024-03-02T05:26:10;0.55;;;0.52;;
73650;SDS011;61944;52.538;6.108;2024-03-02T05:28:38;0.63;;;0.63;;
73650;SDS011;61944;52.538;6.108;2024-03-02T05:31:04;1.52;;;0.80;;
73650;SDS011;61944;52.538;6.108;2024-03-02T05:33:29;0.70;;;0.60;;
73650;SDS011;61944;52.538;6.108;2024-03-02T05:35:56;2.15;;;0.50;;
73650;SDS011;61944;52.538;6.108;2024-03-02T05:38:22;0.65;;;0.60;;
73650;SDS011;61944;52.538;6.108;2024-03-02T05:40:47;0.70;;;0.50;;
73650;SDS011;61944;52.538;6.108;2024-03-02T05:43:13;0.47;;;0.47;;
73650;SDS011;61944;52.538;6.108;2024-03-02T05:45:38;0.50;;;0.40;;
73650;SDS011;61944;52.538;6.108;2024-03-02T05:48:04;0.50;;;0.40;;
73650;SDS011;61944;52.538;6.108;2024-03-02T05:50:32;0.50;;;0.50;;
73650;SDS011;61944;52.538;6.108;2024-03-02T05:52:57;1.35;;;0.68;;
73650;SDS011;61944;52.538;6.108;2024-03-02T05:55:23;0.50;;;0.50;;
73650;SDS011;61944;52.538;6.108;2024-03-02T05:57:49;0.75;;;0.50;;
73650;SDS011;61944;52.538;6.108;2024-03-02T06:00:28;0.57;;;0.50;;
73650;SDS011;61944;52.538;6.108;2024-03-02T06:02:53;0.90;;;0.60;;
73650;SDS011;61944;52.538;6.108;2024-03-02T06:05:18;0.63;;;0.63;;
73650;SDS011;61944;52.538;6.108;2024-03-02T06:07:44;0.55;;;0.55;;
73650;SDS011;61944;52.538;6.108;2024-03-02T06:10:09;0.70;;;0.70;;
73650;SDS011;61944;52.538;6.108;2024-03-02T06:12:34;0.88;;;0.68;;
73650;SDS011;61944;52.538;6.108;2024-03-02T06:15:00;0.65;;;0.60;;
73650;SDS011;61944;52.538;6.108;2024-03-02T06:17:25;1.27;;;0.50;;
73650;SDS011;61944;52.538;6.108;2024-03-02T06:19:50;3.00;;;0.80;;
73650;SDS011;61944;52.538;6.108;2024-03-02T06:22:16;0.50;;;0.50;;
73650;SDS011;61944;52.538;6.108;2024-03-02T06:24:41;1.38;;;0.70;;
73650;SDS011;61944;52.538;6.108;2024-03-02T06:27:07;0.98;;;0.57;;
73650;SDS011;61944;52.538;6.108;2024-03-02T06:29:32;0.73;;;0.50;;
73650;SDS011;61944;52.538;6.108;2024-03-02T06:32:01;1.50;;;0.60;;
73650;SDS011;61944;52.538;6.108;2024-03-02T06:34:26;0.98;;;0.47;;
73650;SDS011;61944;52.538;6.108;2024-03-02T06:36:51;1.20;;;0.60;;
73650;SDS011;61944;52.538;6.108;2024-03-02T06:39:17;0.93;;;0.60;;
73650;SDS011;61944;52.538;6.108;2024-03-02T06:41:42;2.50;;;0.65;;
73650;SDS011;61944;52.538;6.108;2024-03-02T06:44:07;1.85;;;0.60;;
73650;SDS011;61944;52.538;6.108;2024-03-02T06:46:33;0.70;;;0.60;;
73650;SDS011;61944;52.538;6.108;2024-03-02T06:48:58;1.17;;;0.75;;
73650;SDS011;61944;52.538;6.108;2024-03-02T06:51:24;1.20;;;0.50;;
73650;SDS011;61944;52.538;6.108;2024-03-02T06:53:49;0.75;;;0.45;;
73650;SDS011;61944;52.538;6.108;2024-03-02T06:56:14;0.68;;;0.68;;
73650;SDS011;61944;52.538;6.108;2024-03-02T06:58:40;1.63;;;0.70;;
73650;SDS011;61944;52.538;6.108;2024-03-02T07:01:05;1.00;;;0.68;;
73650;SDS011;61944;52.538;6.108;2024-03-02T07:03:31;0.70;;;0.70;;
73650;SDS011;61944;52.538;6.108;2024-03-02T07:05:56;1.60;;;0.75;;
73650;SDS011;61944;52.538;6.108;2024-03-02T07:08:22;1.30;;;0.80;;
73650;SDS011;61944;52.538;6.108;2024-03-02T07:10:47;0.82;;;0.52;;
73650;SDS011;61944;52.538;6.108;2024-03-02T07:13:13;0.77;;;0.68;;
73650;SDS011;61944;52.538;6.108;2024-03-02T07:15:38;1.15;;;0.80;;
73650;SDS011;61944;52.538;6.108;2024-03-02T07:18:22;0.68;;;0.47;;
73650;SDS011;61944;52.538;6.108;2024-03-02T07:20:47;0.93;;;0.75;;
73650;SDS011;61944;52.538;6.108;2024-03-02T07:23:14;0.82;;;0.70;;
73650;SDS011;61944;52.538;6.108;2024-03-02T07:25:39;1.05;;;0.85;;
73650;SDS011;61944;52.538;6.108;2024-03-02T07:28:05;1.05;;;0.60;;
73650;SDS011;61944;52.538;6.108;2024-03-02T07:30:32;1.75;;;0.60;;
73650;SDS011;61944;52.538;6.108;2024-03-02T07:32:57;0.98;;;0.70;;
73650;SDS011;61944;52.538;6.108;2024-03-02T07:35:23;2.58;;;0.90;;
73650;SDS011;61944;52.538;6.108;2024-03-02T07:37:52;1.65;;;0.90;;
73650;SDS011;61944;52.538;6.108;2024-03-02T07:40:18;4.07;;;0.93;;
73650;SDS011;61944;52.538;6.108;2024-03-02T07:42:43;0.98;;;0.80;;
73650;SDS011;61944;52.538;6.108;2024-03-02T07:45:10;1.25;;;0.63;;
73650;SDS011;61944;52.538;6.108;2024-03-02T07:47:35;2.13;;;0.93;;
73650;SDS011;61944;52.538;6.108;2024-03-02T07:50:01;1.25;;;0.90;;
73650;SDS011;61944;52.538;6.108;2024-03-02T07:52:27;1.15;;;1.05;;
73650;SDS011;61944;52.538;6.108;2024-03-02T07:54:53;1.20;;;1.10;;
73650;SDS011;61944;52.538;6.108;2024-03-02T07:57:19;1.85;;;0.75;;
73650;SDS011;61944;52.538;6.108;2024-03-02T07:59:44;4.20;;;1.20;;
73650;SDS011;61944;52.538;6.108;2024-03-02T08:02:10;0.95;;;0.75;;
73650;SDS011;61944;52.538;6.108;2024-03-02T08:04:35;1.63;;;0.90;;
73650;SDS011;61944;52.538;6.108;2024-03-02T08:07:02;1.95;;;0.90;;
73650;SDS011;61944;52.538;6.108;2024-03-02T08:09:27;2.30;;;0.70;;
73650;SDS011;61944;52.538;6.108;2024-03-02T08:11:53;2.58;;;0.80;;
73650;SDS011;61944;52.538;6.108;2024-03-02T08:14:18;2.00;;;0.70;;
73650;SDS011;61944;52.538;6.108;2024-03-02T08:16:44;1.25;;;0.80;;
73650;SDS011;61944;52.538;6.108;2024-03-02T08:19:10;0.90;;;0.82;;
73650;SDS011;61944;52.538;6.108;2024-03-02T08:21:35;1.00;;;0.70;;
73650;SDS011;61944;52.538;6.108;2024-03-02T08:24:01;2.88;;;1.15;;
73650;SDS011;61944;52.538;6.108;2024-03-02T08:26:27;1.38;;;0.73;;
73650;SDS011;61944;52.538;6.108;2024-03-02T08:28:57;2.45;;;0.85;;
73650;SDS011;61944;52.538;6.108;2024-03-02T08:31:22;1.33;;;0.70;;
73650;SDS011;61944;52.538;6.108;2024-03-02T08:33:48;1.45;;;0.68;;
73650;SDS011;61944;52.538;6.108;2024-03-02T08:36:13;1.17;;;0.80;;
73650;SDS011;61944;52.538;6.108;2024-03-02T08:38:39;1.02;;;0.60;;
73650;SDS011;61944;52.538;6.108;2024-03-02T08:41:05;1.10;;;1.00;;
73650;SDS011;61944;52.538;6.108;2024-03-02T08:43:32;1.60;;;1.20;;
73650;SDS011;61944;52.538;6.108;2024-03-02T08:45:57;2.50;;;0.93;;
73650;SDS011;61944;52.538;6.108;2024-03-02T08:48:23;1.00;;;0.80;;
73650;SDS011;61944;52.538;6.108;2024-03-02T08:50:48;1.08;;;0.85;;
73650;SDS011;61944;52.538;6.108;2024-03-02T08:53:13;1.40;;;1.00;;
73650;SDS011;61944;52.538;6.108;2024-03-02T08:55:43;1.13;;;0.90;;
73650;SDS011;61944;52.538;6.108;2024-03-02T08:58:09;1.90;;;1.05;;
73650;SDS011;61944;52.538;6.108;2024-03-02T09:00:34;3.00;;;0.80;;
73650;SDS011;61944;52.538;6.108;2024-03-02T09:03:00;5.22;;;1.20;;
73650;SDS011;61944;52.538;6.108;2024-03-02T09:05:25;1.65;;;0.70;;
73650;SDS011;61944;52.538;6.108;2024-03-02T09:07:51;4.22;;;2.05;;
73650;SDS011;61944;52.538;6.108;2024-03-02T09:10:16;1.20;;;0.85;;
73650;SDS011;61944;52.538;6.108;2024-03-02T09:12:41;5.72;;;1.20;;
73650;SDS011;61944;52.538;6.108;2024-03-02T09:15:08;2.28;;;1.00;;
73650;SDS011;61944;52.538;6.108;2024-03-02T09:17:33;4.18;;;1.17;;
73650;SDS011;61944;52.538;6.108;2024-03-02T09:19:59;0.60;;;0.60;;
73650;SDS011;61944;52.538;6.108;2024-03-02T09:22:24;2.05;;;0.80;;
73650;SDS011;61944;52.538;6.108;2024-03-02T09:24:49;1.35;;;0.98;;
73650;SDS011;61944;52.538;6.108;2024-03-02T09:27:15;3.55;;;1.05;;
73650;SDS011;61944;52.538;6.108;2024-03-02T09:29:40;2.38;;;0.80;;
73650;SDS011;61944;52.538;6.108;2024-03-02T09:32:06;1.80;;;0.82;;
73650;SDS011;61944;52.538;6.108;2024-03-02T09:34:32;3.95;;;1.02;;
73650;SDS011;61944;52.538;6.108;2024-03-02T09:36:57;1.55;;;0.90;;
73650;SDS011;61944;52.538;6.108;2024-03-02T09:39:23;1.00;;;0.80;;
73650;SDS011;61944;52.538;6.108;2024-03-02T09:41:50;4.43;;;1.13;;
73650;SDS011;61944;52.538;6.108;2024-03-02T09:44:16;3.30;;;0.80;;
73650;SDS011;61944;52.538;6.108;2024-03-02T09:46:41;3.17;;;1.10;;
73650;SDS011;61944;52.538;6.108;2024-03-02T09:49:08;1.33;;;0.80;;
73650;SDS011;61944;52.538;6.108;2024-03-02T09:51:35;3.25;;;1.02;;
73650;SDS011;61944;52.538;6.108;2024-03-02T09:54:02;2.55;;;1.08;;
73650;SDS011;61944;52.538;6.108;2024-03-02T09:56:27;1.90;;;0.63;;
73650;SDS011;61944;52.538;6.108;2024-03-02T09:58:53;7.32;;;1.10;;
73650;SDS011;61944;52.538;6.108;2024-03-02T10:01:18;0.40;;;0.40;;
73650;SDS011;61944;52.538;6.108;2024-03-02T10:03:44;2.58;;;0.90;;
73650;SDS011;61944;52.538;6.108;2024-03-02T10:06:23;4.78;;;1.08;;
73650;SDS011;61944;52.538;6.108;2024-03-02T10:08:50;1.13;;;0.52;;
73650;SDS011;61944;52.538;6.108;2024-03-02T10:13:51;1.88;;;0.75;;
73650;SDS011;61944;52.538;6.108;2024-03-02T10:16:39;2.88;;;0.80;;
73650;SDS011;61944;52.538;6.108;2024-03-02T10:19:14;4.07;;;1.05;;
73650;SDS011;61944;52.538;6.108;2024-03-02T10:21:49;3.55;;;0.82;;
73650;SDS011;61944;52.538;6.108;2024-03-02T10:24:20;0.95;;;0.93;;
73650;SDS011;61944;52.538;6.108;2024-03-02T10:26:47;2.05;;;0.55;;
73650;SDS011;61944;52.538;6.108;2024-03-02T10:29:13;3.85;;;0.50;;
73650;SDS011;61944;52.538;6.108;2024-03-02T10:31:43;3.25;;;0.70;;
73650;SDS011;61944;52.538;6.108;2024-03-02T10:34:09;4.38;;;0.68;;
73650;SDS011;61944;52.538;6.108;2024-03-02T10:36:36;7.07;;;1.00;;
73650;SDS011;61944;52.538;6.108;2024-03-02T10:39:05;0.88;;;0.75;;
73650;SDS011;61944;52.538;6.108;2024-03-02T10:41:32;1.52;;;0.50;;
73650;SDS011;61944;52.538;6.108;2024-03-02T10:43:59;2.20;;;1.30;;
73650;SDS011;61944;52.538;6.108;2024-03-02T10:46:28;3.63;;;0.77;;
73650;SDS011;61944;52.538;6.108;2024-03-02T10:48:54;2.38;;;0.95;;
73650;SDS011;61944;52.538;6.108;2024-03-02T10:51:24;3.00;;;0.77;;
73650;SDS011;61944;52.538;6.108;2024-03-02T10:53:51;1.95;;;0.80;;
73650;SDS011;61944;52.538;6.108;2024-03-02T10:56:19;2.30;;;0.70;;
73650;SDS011;61944;52.538;6.108;2024-03-02T10:58:51;0.80;;;0.60;;
73650;SDS011;61944;52.538;6.108;2024-03-02T11:01:25;1.30;;;0.70;;
73650;SDS011;61944;52.538;6.108;2024-03-02T11:03:51;2.78;;;0.80;;
73650;SDS011;61944;52.538;6.108;2024-03-02T11:06:18;1.30;;;0.60;;
73650;SDS011;61944;52.538;6.108;2024-03-02T11:08:44;2.33;;;0.90;;
73650;SDS011;61944;52.538;6.108;2024-03-02T11:11:15;3.90;;;0.80;;
73650;SDS011;61944;52.538;6.108;2024-03-02T11:16:25;0.50;;;0.40;;
73650;SDS011;61944;52.538;6.108;2024-03-02T11:18:59;1.40;;;0.75;;
73650;SDS011;61944;52.538;6.108;2024-03-02T11:21:26;3.65;;;0.95;;
73650;SDS011;61944;52.538;6.108;2024-03-02T11:23:52;4.10;;;0.80;;
73650;SDS011;61944;52.538;6.108;2024-03-02T11:26:18;3.35;;;1.50;;
73650;SDS011;61944;52.538;6.108;2024-03-02T11:28:44;1.38;;;0.60;;
73650;SDS011;61944;52.538;6.108;2024-03-02T11:31:15;3.10;;;1.23;;
73650;SDS011;61944;52.538;6.108;2024-03-02T11:33:41;4.30;;;1.10;;
73650;SDS011;61944;52.538;6.108;2024-03-02T11:36:06;4.03;;;0.90;;
73650;SDS011;61944;52.538;6.108;2024-03-02T11:38:33;1.92;;;0.75;;
73650;SDS011;61944;52.538;6.108;2024-03-02T11:41:00;4.20;;;0.95;;
73650;SDS011;61944;52.538;6.108;2024-03-02T11:43:28;2.72;;;0.98;;
73650;SDS011;61944;52.538;6.108;2024-03-02T11:45:57;1.70;;;0.90;;
73650;SDS011;61944;52.538;6.108;2024-03-02T11:48:24;2.90;;;0.85;;
73650;SDS011;61944;52.538;6.108;2024-03-02T11:50:50;1.55;;;0.50;;
73650;SDS011;61944;52.538;6.108;2024-03-02T11:53:16;1.23;;;0.50;;
73650;SDS011;61944;52.538;6.108;2024-03-02T11:55:43;1.00;;;0.60;;
73650;SDS011;61944;52.538;6.108;2024-03-02T11:58:11;1.30;;;0.90;;
73650;SDS011;61944;52.538;6.108;2024-03-02T12:00:37;3.22;;;1.00;;
73650;SDS011;61944;52.538;6.108;2024-03-02T12:03:04;1.08;;;0.70;;
73650;SDS011;61944;52.538;6.108;2024-03-02T12:05:31;1.90;;;1.15;;
73650;SDS011;61944;52.538;6.108;2024-03-02T12:07:58;4.13;;;1.20;;
73650;SDS011;61944;52.538;6.108;2024-03-02T12:10:25;4.97;;;1.05;;
73650;SDS011;61944;52.538;6.108;2024-03-02T12:12:57;3.22;;;0.70;;
73650;SDS011;61944;52.538;6.108;2024-03-02T12:15:30;2.35;;;0.70;;
73650;SDS011;61944;52.538;6.108;2024-03-02T12:18:00;3.60;;;1.10;;
73650;SDS011;61944;52.538;6.108;2024-03-02T12:20:27;3.55;;;1.02;;
73650;SDS011;61944;52.538;6.108;2024-03-02T12:22:54;4.70;;;1.13;;
73650;SDS011;61944;52.538;6.108;2024-03-02T12:25:22;4.30;;;1.05;;
73650;SDS011;61944;52.538;6.108;2024-03-02T12:27:50;2.80;;;0.80;;
73650;SDS011;61944;52.538;6.108;2024-03-02T12:30:17;3.08;;;1.10;;
73650;SDS011;61944;52.538;6.108;2024-03-02T12:32:43;1.10;;;0.90;;
73650;SDS011;61944;52.538;6.108;2024-03-02T12:35:10;2.35;;;1.17;;
73650;SDS011;61944;52.538;6.108;2024-03-02T12:40:15;1.50;;;1.00;;
73650;SDS011;61944;52.538;6.108;2024-03-02T12:42:43;3.13;;;0.90;;
73650;SDS011;61944;52.538;6.108;2024-03-02T12:45:10;1.90;;;1.50;;
73650;SDS011;61944;52.538;6.108;2024-03-02T12:47:36;2.90;;;1.38;;
73650;SDS011;61944;52.538;6.108;2024-03-02T12:50:03;2.47;;;1.02;;
73650;SDS011;61944;52.538;6.108;2024-03-02T12:52:29;3.47;;;1.25;;
73650;SDS011;61944;52.538;6.108;2024-03-02T12:54:55;2.63;;;0.77;;
73650;SDS011;61944;52.538;6.108;2024-03-02T12:57:26;2.53;;;1.20;;
73650;SDS011;61944;52.538;6.108;2024-03-02T12:59:54;0.90;;;0.80;;
73650;SDS011;61944;52.538;6.108;2024-03-02T13:02:23;5.05;;;0.82;;
73650;SDS011;61944;52.538;6.108;2024-03-02T13:04:52;4.05;;;1.67;;
73650;SDS011;61944;52.538;6.108;2024-03-02T13:07:21;1.58;;;1.00;;
73650;SDS011;61944;52.538;6.108;2024-03-02T13:09:52;3.13;;;1.00;;
73650;SDS011;61944;52.538;6.108;2024-03-02T13:12:20;1.75;;;0.77;;
73650;SDS011;61944;52.538;6.108;2024-03-02T13:14:49;2.97;;;0.95;;
73650;SDS011;61944;52.538;6.108;2024-03-02T13:17:17;4.05;;;0.73;;
73650;SDS011;61944;52.538;6.108;2024-03-02T13:20:04;1.83;;;1.40;;
73650;SDS011;61944;52.538;6.108;2024-03-02T13:22:35;4.40;;;1.10;;
73650;SDS011;61944;52.538;6.108;2024-03-02T13:25:00;2.10;;;1.00;;
73650;SDS011;61944;52.538;6.108;2024-03-02T13:27:28;5.30;;;0.95;;
73650;SDS011;61944;52.538;6.108;2024-03-02T13:29:54;12.18;;;1.70;;
73650;SDS011;61944;52.538;6.108;2024-03-02T13:32:19;1.48;;;0.88;;
73650;SDS011;61944;52.538;6.108;2024-03-02T13:34:48;1.02;;;0.63;;
73650;SDS011;61944;52.538;6.108;2024-03-02T13:37:14;1.52;;;0.90;;
73650;SDS011;61944;52.538;6.108;2024-03-02T13:39:39;1.10;;;0.85;;
73650;SDS011;61944;52.538;6.108;2024-03-02T13:42:09;1.50;;;1.10;;
73650;SDS011;61944;52.538;6.108;2024-03-02T13:44:35;2.22;;;1.27;;
73650;SDS011;61944;52.538;6.108;2024-03-02T13:47:01;3.40;;;1.83;;
73650;SDS011;61944;52.538;6.108;2024-03-02T13:49:27;1.90;;;0.88;;
73650;SDS011;61944;52.538;6.108;2024-03-02T13:52:05;3.80;;;1.20;;
73650;SDS011;61944;52.538;6.108;2024-03-02T13:54:41;4.40;;;1.50;;
73650;SDS011;61944;52.538;6.108;2024-03-02T13:57:08;9.32;;;2.78;;
73650;SDS011;61944;52.538;6.108;2024-03-02T13:59:34;4.50;;;1.75;;
73650;SDS011;61944;52.538;6.108;2024-03-02T14:02:00;8.15;;;2.72;;
73650;SDS011;61944;52.538;6.108;2024-03-02T14:04:27;15.63;;;5.43;;
73650;SDS011;61944;52.538;6.108;2024-03-02T14:06:52;21.38;;;6.10;;
73650;SDS011;61944;52.538;6.108;2024-03-02T14:09:18;7.82;;;2.65;;
73650;SDS011;61944;52.538;6.108;2024-03-02T14:11:45;5.07;;;2.05;;
73650;SDS011;61944;52.538;6.108;2024-03-02T14:14:11;20.95;;;6.13;;
73650;SDS011;61944;52.538;6.108;2024-03-02T14:16:36;4.05;;;2.42;;
73650;SDS011;61944;52.538;6.108;2024-03-02T14:19:01;21.80;;;6.35;;
73650;SDS011;61944;52.538;6.108;2024-03-02T14:21:29;15.20;;;5.18;;
73650;SDS011;61944;52.538;6.108;2024-03-02T14:23:54;21.63;;;7.38;;
73650;SDS011;61944;52.538;6.108;2024-03-02T14:26:20;11.98;;;4.25;;
73650;SDS011;61944;52.538;6.108;2024-03-02T14:28:45;9.90;;;3.38;;
73650;SDS011;61944;52.538;6.108;2024-03-02T14:31:11;22.90;;;5.78;;
73650;SDS011;61944;52.538;6.108;2024-03-02T14:33:36;20.35;;;5.38;;
73650;SDS011;61944;52.538;6.108;2024-03-02T14:36:02;19.08;;;6.70;;
73650;SDS011;61944;52.538;6.108;2024-03-02T14:38:29;7.78;;;2.45;;
73650;SDS011;61944;52.538;6.108;2024-03-02T14:40:54;13.77;;;4.82;;
73650;SDS011;61944;52.538;6.108;2024-03-02T14:43:20;9.35;;;3.40;;
73650;SDS011;61944;52.538;6.108;2024-03-02T14:45:45;12.73;;;4.22;;
73650;SDS011;61944;52.538;6.108;2024-03-02T14:48:11;11.68;;;3.35;;
73650;SDS011;61944;52.538;6.108;2024-03-02T14:50:39;8.73;;;2.55;;
73650;SDS011;61944;52.538;6.108;2024-03-02T14:53:05;19.25;;;5.28;;
73650;SDS011;61944;52.538;6.108;2024-03-02T14:55:32;2.90;;;1.52;;